Time;durP1;ratioP1;P1;durP2;ratioP2;P2;SDS_P1;SDS_P2;PMS_P1;PMS_P2;Temp;Humidity;BMP_temperature;BMP_pressure;BME280_temperature;BME280_humidity;BME280_pressure;Samples;Min_cycle;Max_cycle;Signal;HPM_P1;HPM_P2
2022/11/26 06:45:13;;;;;;;20.53;16.03;;;;;;;0.68;100.00;93453.56;5113224;27;20564;-68
2022/11/26 06:47:38;;;;;;;17.53;15.80;;;;;;;0.85;100.00;93459.88;5086090;28;20189;-66
2022/11/26 06:50:05;;;;;;;16.23;14.80;;;;;;;1.12;100.00;93458.84;5072775;28;20224;-67
2022/11/26 06:52:30;;;;;;;16.83;15.10;;;;;;;1.27;100.00;93462.00;5086099;28;20204;-66
2022/11/26 06:54:55;;;;;;;16.23;14.07;;;;;;;1.56;100.00;93465.84;5082698;28;20225;-65
2022/11/26 06:57:21;;;;;;;16.17;14.67;;;;;;;1.96;100.00;93466.50;5074149;28;20182;-64
2022/11/26 06:59:46;;;;;;;16.00;14.70;;;;;;;2.17;100.00;93463.59;5084898;28;20217;-65
2022/11/26 07:02:11;;;;;;;16.13;14.47;;;;;;;2.58;98.37;93463.94;5076194;28;20174;-66
2022/11/26 07:04:37;;;;;;;17.40;15.70;;;;;;;2.93;97.06;93465.06;5085313;28;20217;-66
2022/11/26 07:07:02;;;;;;;16.60;15.30;;;;;;;3.06;95.87;93470.91;5101694;28;20196;-65
2022/11/26 07:09:28;;;;;;;17.23;15.83;;;;;;;3.10;95.16;93472.06;5084270;28;20203;-66
2022/11/26 07:11:53;;;;;;;15.77;14.27;;;;;;;3.31;94.27;93470.88;5078879;28;20200;-66
2022/11/26 07:14:21;;;;;;;16.83;15.07;;;;;;;3.29;95.26;93472.88;5072759;28;20252;-66
2022/11/26 07:16:46;;;;;;;15.93;14.63;;;;;;;3.04;96.24;93474.69;5079699;28;20193;-65
2022/11/26 07:19:12;;;;;;;15.63;14.40;;;;;;;3.05;95.06;93473.69;5077869;28;20257;-63
2022/11/26 07:21:38;;;;;;;15.07;13.77;;;;;;;3.04;96.49;93477.25;5078051;28;20205;-68
2022/11/26 07:24:04;;;;;;;16.63;15.03;;;;;;;3.03;96.34;93473.13;5085865;28;20205;-69
2022/11/26 07:26:29;;;;;;;15.87;14.47;;;;;;;3.00;96.31;93476.13;5099270;28;20220;-68
2022/11/26 07:28:54;;;;;;;16.87;15.47;;;;;;;2.99;96.00;93470.16;5086253;28;20193;-67
2022/11/26 07:31:21;;;;;;;16.87;15.50;;;;;;;3.00;95.59;93476.88;5086512;28;20258;-68
2022/11/26 07:33:47;;;;;;;15.93;14.63;;;;;;;2.92;95.80;93473.81;5086047;28;20215;-68
2022/11/26 07:36:15;;;;;;;14.90;13.70;;;;;;;3.02;95.63;93474.88;5085464;28;20304;-68
2022/11/26 07:38:41;;;;;;;16.03;14.70;;;;;;;3.01;94.30;93469.94;5085364;28;20177;-68
2022/11/26 07:41:09;;;;;;;15.53;14.13;;;;;;;3.07;94.45;93484.56;5072943;28;20257;-68
2022/11/26 07:43:36;;;;;;;15.13;13.93;;;;;;;2.79;95.82;93484.19;5070980;28;20214;-67
2022/11/26 07:46:03;;;;;;;16.47;15.03;;;;;;;2.99;95.67;93484.84;5063990;28;20218;-68
2022/11/26 07:48:29;;;;;;;16.77;15.27;;;;;;;3.09;93.89;93500.63;5063725;28;20180;-67
2022/11/26 07:50:55;;;;;;;15.90;14.33;;;;;;;3.22;93.70;93485.81;5090826;28;20215;-67
2022/11/26 07:53:20;;;;;;;14.53;13.43;;;;;;;3.14;94.07;93499.00;5104586;28;20180;-67
2022/11/26 07:55:45;;;;;;;14.80;13.67;;;;;;;3.26;93.04;93492.16;5095395;28;20201;-67
2022/11/26 07:58:11;;;;;;;14.73;13.73;;;;;;;3.45;93.21;93510.25;5091225;28;20193;-68
2022/11/26 08:00:36;;;;;;;15.67;14.43;;;;;;;3.53;92.21;93508.19;5085062;28;20217;-68
2022/11/26 08:03:01;;;;;;;14.73;13.60;;;;;;;3.51;92.89;93510.19;5092283;28;20183;-68
2022/11/26 08:05:27;;;;;;;16.13;14.83;;;;;;;3.69;92.08;93515.34;5092107;28;20224;-68
2022/11/26 08:07:52;;;;;;;15.43;14.23;;;;;;;3.46;92.53;93507.44;5092176;28;20180;-68
2022/11/26 08:10:17;;;;;;;15.07;13.83;;;;;;;3.84;91.23;93505.47;5091914;28;20232;-68
2022/11/26 08:12:44;;;;;;;15.30;14.10;;;;;;;4.16;89.30;93509.47;5087585;28;20223;-68
2022/11/26 08:15:10;;;;;;;15.47;14.27;;;;;;;4.04;89.36;93508.63;5091561;28;20221;-67
2022/11/26 08:17:35;;;;;;;15.47;14.27;;;;;;;3.61;90.99;93507.88;5091661;28;20183;-68
2022/11/26 08:20:00;;;;;;;15.90;14.67;;;;;;;3.67;91.65;93509.63;5091763;28;20276;-68
2022/11/26 08:22:28;;;;;;;15.67;14.27;;;;;;;3.87;90.04;93509.41;5092026;28;20181;-67
2022/11/26 08:24:54;;;;;;;14.43;13.33;;;;;;;3.88;89.08;93495.47;5091399;28;20248;-67
2022/11/26 08:27:19;;;;;;;15.57;14.40;;;;;;;4.14;88.35;93508.88;5091979;28;20849;-68
2022/11/26 08:29:45;;;;;;;16.53;15.17;;;;;;;3.51;90.26;93499.84;5091624;28;20225;-68
2022/11/26 08:32:10;;;;;;;15.57;14.27;;;;;;;3.69;89.61;93497.28;5090931;28;20176;-67
2022/11/26 08:34:35;;;;;;;17.17;15.70;;;;;;;3.36;91.21;93507.16;5089555;28;20284;-68
2022/11/26 08:37:01;;;;;;;15.13;13.83;;;;;;;3.34;91.87;93501.41;5091367;28;20212;-68
2022/11/26 08:39:26;;;;;;;15.93;14.63;;;;;;;3.68;90.32;93511.19;5091506;28;20212;-68
2022/11/26 08:41:52;;;;;;;16.93;15.50;;;;;;;3.76;90.14;93516.09;5091903;28;20213;-67
2022/11/26 08:44:17;;;;;;;16.10;14.80;;;;;;;3.85;88.77;93514.78;5090900;28;20235;-68
2022/11/26 08:46:42;;;;;;;15.80;14.47;;;;;;;4.13;88.92;93524.59;5088516;28;20193;-67
2022/11/26 08:49:10;;;;;;;17.07;15.57;;;;;;;3.67;90.24;93524.31;5091603;28;21735;-67
2022/11/26 08:51:36;;;;;;;16.17;14.87;;;;;;;4.40;86.77;93524.06;5090944;28;20232;-68
2022/11/26 08:54:02;;;;;;;16.77;15.53;;;;;;;4.45;86.27;93529.34;5090695;28;20252;-68
2022/11/26 08:56:28;;;;;;;17.77;16.13;;;;;;;4.02;88.65;93533.88;5095614;28;20220;-68
2022/11/26 08:58:53;;;;;;;18.13;16.43;;;;;;;3.94;88.54;93534.16;5094055;28;20192;-68
2022/11/26 09:01:23;;;;;;;16.30;15.00;;;;;;;4.23;88.01;93535.22;5090913;28;20232;-68
2022/11/26 09:03:50;;;;;;;17.47;15.77;;;;;;;4.44;85.77;93532.97;5091229;28;20303;-68
2022/11/26 09:06:16;;;;;;;15.77;14.50;;;;;;;4.51;85.27;93536.25;5089769;28;20217;-68
2022/11/26 09:11:27;;;;;;;15.67;14.17;;;;;;;4.70;83.39;93530.03;5080155;28;20251;-67
2022/11/26 09:13:52;;;;;;;17.27;15.83;;;;;;;4.25;86.63;93523.66;5091224;28;20189;-67
2022/11/26 09:16:19;;;;;;;17.77;16.23;;;;;;;4.37;86.42;93528.88;5090342;28;20228;-68
2022/11/26 09:18:44;;;;;;;16.37;15.07;;;;;;;4.17;86.74;93523.94;5089745;28;20219;-67
2022/11/26 09:21:10;;;;;;;17.30;15.67;;;;;;;4.55;84.97;93534.00;5090315;28;20220;-68
2022/11/26 09:23:35;;;;;;;16.57;15.17;;;;;;;4.66;84.49;93533.25;5090033;28;20331;-68
2022/11/26 09:26:00;;;;;;;17.67;15.80;;;;;;;4.08;87.02;93530.41;5089141;28;20220;-68
2022/11/26 09:28:27;;;;;;;17.27;15.50;;;;;;;4.23;87.58;93530.84;5091787;28;20191;-68
2022/11/26 09:30:59;;;;;;;17.90;16.43;;;;;;;4.13;87.35;93524.59;5091910;28;20231;-68
2022/11/26 09:33:25;;;;;;;17.80;16.30;;;;;;;3.96;87.53;93539.91;5087531;28;20183;-68
2022/11/26 09:35:51;;;;;;;19.07;17.17;;;;;;;4.21;87.34;93532.06;5089847;28;20228;-68
2022/11/26 09:38:16;;;;;;;18.83;16.87;;;;;;;4.10;88.67;93514.69;5090578;28;20184;-68
2022/11/26 09:40:56;;;;;;;19.00;17.30;;;;;;;3.97;86.57;93520.81;5105513;28;20216;-67
2022/11/26 09:43:50;;;;;;;18.57;16.87;;;;;;;3.79;88.21;93514.84;5123304;28;20220;-68
2022/11/26 09:46:22;;;;;;;17.13;15.40;;;;;;;4.23;87.88;93520.53;5077249;28;20615;-69
2022/11/26 09:48:47;;;;;;;18.07;16.37;;;;;;;4.42;86.59;93516.88;5090270;28;20215;-68
2022/11/26 09:51:16;;;;;;;16.40;14.73;;;;;;;4.35;83.96;93513.59;5089344;28;20943;-69
2022/11/26 09:53:48;;;;;;;16.70;15.50;;;;;;;4.06;86.37;93506.59;5090248;28;20180;-68
2022/11/26 09:56:25;;;;;;;18.47;16.73;;;;;;;3.97;87.46;93489.81;5089278;28;20236;-68
2022/11/26 09:58:56;;;;;;;20.27;18.13;;;;;;;4.91;82.77;93508.84;5088775;28;20176;-68
2022/11/26 10:01:22;;;;;;;18.17;16.57;;;;;;;4.89;81.82;93505.66;5087321;28;20212;-68
2022/11/26 10:03:49;;;;;;;18.60;16.60;;;;;;;4.90;82.02;93491.72;5089883;28;20220;-67
2022/11/26 10:06:26;;;;;;;18.87;17.07;;;;;;;4.93;81.48;93491.28;5087555;28;20220;-68
2022/11/26 10:08:57;;;;;;;18.57;16.60;;;;;;;4.83;82.21;93487.66;5089859;28;20256;-68
2022/11/26 10:11:27;;;;;;;17.63;15.83;;;;;;;4.96;82.01;93485.66;5089463;28;20291;-68
2022/11/26 10:14:27;;;;;;;17.77;16.20;;;;;;;5.03;82.70;93484.78;5088989;28;20189;-68
2022/11/26 10:17:17;;;;;;;19.53;17.50;;;;;;;5.11;82.82;93487.81;5089622;28;20210;-69
2022/11/26 10:19:49;;;;;;;19.73;17.83;;;;;;;5.02;83.45;93493.53;5088812;28;20246;-67
2022/11/26 10:22:28;;;;;;;18.73;16.73;;;;;;;4.70;85.30;93475.72;5089162;28;20230;-68
2022/11/26 10:24:55;;;;;;;19.33;17.40;;;;;;;5.12;82.73;93480.84;5089300;28;20232;-67
2022/11/26 10:27:25;;;;;;;18.67;16.80;;;;;;;5.42;81.25;93478.94;5083531;28;20183;-67
2022/11/26 10:29:58;;;;;;;19.43;17.57;;;;;;;4.97;81.91;93474.31;5088874;28;20291;-68
2022/11/26 10:32:38;;;;;;;18.97;17.03;;;;;;;4.97;82.12;93481.28;5089289;28;20189;-68
2022/11/26 10:35:04;;;;;;;19.60;17.80;;;;;;;5.15;81.90;93477.81;5088866;28;20228;-68
2022/11/26 10:37:30;;;;;;;21.50;19.40;;;;;;;5.10;82.94;93480.28;5088963;28;20251;-67
2022/11/26 10:40:05;;;;;;;18.10;16.47;;;;;;;5.42;80.01;93468.56;5088260;28;20224;-68
2022/11/26 10:42:40;;;;;;;19.43;17.63;;;;;;;5.40;79.78;93475.81;5089294;28;20767;-68
2022/11/26 10:45:18;;;;;;;19.23;17.33;;;;;;;5.30;80.35;93481.53;5088928;28;20236;-68
2022/11/26 10:47:43;;;;;;;20.57;17.87;;;;;;;5.18;80.86;93482.53;5089261;28;20200;-68
2022/11/26 10:50:08;;;;;;;20.63;18.57;;;;;;;4.92;82.77;93481.94;5089185;28;20227;-68
2022/11/26 10:52:37;;;;;;;21.00;18.87;;;;;;;4.97;83.73;93470.94;5089170;28;20189;-69
2022/11/26 10:55:15;;;;;;;18.87;17.00;;;;;;;4.93;82.54;93472.41;5078053;28;20327;-68
2022/11/26 10:57:46;;;;;;;20.43;17.00;;;;;;;5.38;80.19;93475.22;5088194;28;20193;-66
2022/11/26 11:00:35;;;;;;;17.97;16.17;;;;;;;5.37;80.11;93484.78;5097376;28;20243;-68
2022/11/26 11:03:03;;;;;;;21.13;19.03;;;;;;;5.24;81.21;93481.63;5088939;28;20264;-68
2022/11/26 11:05:29;;;;;;;19.37;17.33;;;;;;;5.21;81.58;93484.69;5087216;28;20229;-68
2022/11/26 11:07:54;;;;;;;19.50;17.27;;;;;;;5.46;80.33;93480.06;5089207;28;20747;-67
2022/11/26 11:10:23;;;;;;;18.33;16.47;;;;;;;5.23;81.79;93485.25;5088617;28;20280;-68
2022/11/26 11:13:10;;;;;;;19.10;17.40;;;;;;;5.40;80.76;93486.94;5087638;28;20210;-68
2022/11/26 11:15:39;;;;;;;18.97;17.13;;;;;;;5.35;80.00;93478.28;5090731;28;20229;-68
2022/11/26 11:18:19;;;;;;;19.10;17.07;;;;;;;5.39;81.20;93489.75;5081836;28;20188;-68
2022/11/26 11:20:54;;;;;;;17.97;16.23;;;;;;;5.36;82.10;93487.59;5099492;28;20354;-68
2022/11/26 11:23:29;;;;;;;18.30;15.87;;;;;;;5.67;79.75;93487.25;5088937;28;20266;-68
2022/11/26 11:26:14;;;;;;;18.23;16.47;;;;;;;5.58;79.70;93486.03;5080640;28;20247;-69
2022/11/26 11:28:46;;;;;;;18.83;16.83;;;;;;;5.52;80.94;93479.97;5090886;28;20184;-68
2022/11/26 11:31:14;;;;;;;20.20;18.20;;;;;;;5.77;79.48;93483.09;5090998;28;20229;-71
2022/11/26 11:33:40;;;;;;;18.67;16.83;;;;;;;5.89;78.63;93493.44;5092461;28;20177;-67
2022/11/26 11:36:22;;;;;;;17.90;16.20;;;;;;;5.94;78.03;93488.38;5091110;28;20246;-67
2022/11/26 11:38:50;;;;;;;17.50;16.00;;;;;;;5.56;79.67;93483.66;5080850;28;20211;-68
2022/11/26 11:41:38;;;;;;;18.30;16.70;;;;;;;5.71;78.98;93483.22;5092106;28;20228;-67
2022/11/26 11:44:26;;;;;;;18.23;16.63;;;;;;;5.99;78.05;93480.72;5094349;28;20236;-66
2022/11/26 11:47:06;;;;;;;17.83;16.13;;;;;;;5.89;77.96;93473.53;5092272;28;20197;-67
2022/11/26 11:50:06;;;;;;;17.13;15.63;;;;;;;5.55;79.72;93474.34;5090976;28;20180;-68
2022/11/26 11:52:53;;;;;;;17.23;15.67;;;;;;;5.74;79.28;93467.22;5092471;28;20197;-68
2022/11/26 11:56:03;;;;;;;18.10;16.27;;;;;;;5.89;77.85;93470.13;5083390;28;20248;-68
2022/11/26 11:59:15;;;;;;;16.80;15.20;;;;;;;5.68;79.03;93468.88;5083447;28;20200;-68
2022/11/26 12:01:43;;;;;;;15.83;14.40;;;;;;;5.74;78.10;93464.63;5082237;28;20322;-68
2022/11/26 12:04:22;;;;;;;18.67;14.97;;;;;;;5.76;77.10;93467.78;5092202;28;20304;-68
2022/11/26 12:07:12;;;;;;;15.37;14.00;;;;;;;6.03;76.29;93467.06;5082428;28;20201;-68
2022/11/26 12:09:50;;;;;;;16.87;15.17;;;;;;;5.80;77.24;93467.09;5083301;28;20246;-68
2022/11/26 12:12:59;;;;;;;17.57;15.87;;;;;;;5.84;76.77;93470.03;5082702;28;20185;-68
2022/11/26 12:15:28;;;;;;;19.07;16.97;;;;;;;6.17;76.32;93465.78;5053748;28;20234;-68
2022/11/26 12:18:14;;;;;;;18.43;16.43;;;;;;;5.88;76.64;93442.66;5050971;28;20201;-68
2022/11/26 12:20:43;;;;;;;20.10;16.93;;;;;;;6.07;76.80;93462.22;5068654;28;20237;-67
2022/11/26 12:23:28;;;;;;;17.77;16.17;;;;;;;5.99;76.03;93460.75;5091809;28;20193;-68
2022/11/26 12:26:05;;;;;;;18.40;16.57;;;;;;;5.92;76.87;93464.50;5088904;28;20270;-68
2022/11/26 12:28:36;;;;;;;17.47;15.70;;;;;;;5.83;77.70;93465.88;5091991;28;20200;-70
2022/11/26 12:31:14;;;;;;;18.77;16.97;;;;;;;5.97;76.49;93451.63;5087857;28;20240;-68
2022/11/26 12:33:47;;;;;;;20.37;17.63;;;;;;;5.96;76.18;93439.72;5091003;28;20214;-69
2022/11/26 12:36:25;;;;;;;17.17;15.47;;;;;;;5.99;75.62;93457.38;5091010;28;20227;-67
2022/11/26 12:39:18;;;;;;;17.23;15.63;;;;;;;6.28;74.53;93438.22;5088600;28;20188;-68
2022/11/26 12:42:05;;;;;;;17.03;15.53;;;;;;;6.14;74.90;93460.28;5090634;28;20200;-68
2022/11/26 12:44:43;;;;;;;18.13;16.43;;;;;;;6.12;75.74;93451.91;5089102;28;20330;-67
2022/11/26 12:47:24;;;;;;;18.03;16.43;;;;;;;6.27;75.12;93452.22;5083810;28;20192;-68
2022/11/26 12:50:06;;;;;;;17.50;15.93;;;;;;;6.34;73.61;93458.06;5090726;28;20228;-68
2022/11/26 12:52:49;;;;;;;19.67;16.17;;;;;;;5.94;75.51;93457.28;5091017;28;20189;-67
2022/11/26 12:55:24;;;;;;;16.97;15.57;;;;;;;5.85;76.56;93456.84;5090976;28;20283;-68
2022/11/26 12:57:53;;;;;;;17.13;15.53;;;;;;;5.87;75.90;93456.59;5091178;28;20192;-68
2022/11/26 13:00:22;;;;;;;15.73;14.33;;;;;;;5.92;76.81;93454.91;5090736;28;20232;-68
2022/11/26 13:02:49;;;;;;;16.87;15.47;;;;;;;5.86;76.32;93455.03;5100668;28;20181;-68
2022/11/26 13:05:41;;;;;;;17.27;15.77;;;;;;;5.86;76.73;93460.22;5090674;28;20216;-68
2022/11/26 13:08:21;;;;;;;20.23;16.10;;;;;;;5.85;76.82;93469.03;5088192;28;20197;-69
2022/11/26 13:11:04;;;;;;;17.40;15.37;;;;;;;5.77;77.04;93471.94;5090302;28;20254;-68
2022/11/26 13:13:57;;;;;;;18.40;16.60;;;;;;;5.69;78.94;93469.69;5090594;28;20200;-68
2022/11/26 13:16:38;;;;;;;16.97;15.37;;;;;;;5.45;78.30;93468.91;5090841;28;20253;-69
2022/11/26 13:19:12;;;;;;;18.73;16.97;;;;;;;5.43;79.07;93452.81;5087445;28;20189;-68
2022/11/26 13:21:58;;;;;;;18.93;15.87;;;;;;;5.51;79.93;93456.88;5096411;28;20230;-68
2022/11/26 13:24:42;;;;;;;17.20;15.43;;;;;;;5.47;79.78;93459.13;5079493;28;20220;-69
2022/11/26 13:27:13;;;;;;;18.27;15.73;;;;;;;5.31;80.82;93461.63;5089653;28;20193;-68
2022/11/26 13:30:01;;;;;;;18.90;17.10;;;;;;;5.13;81.08;93439.22;5090123;28;20284;-68
2022/11/26 13:32:52;;;;;;;19.13;17.30;;;;;;;5.07;81.79;93460.03;5090349;28;20184;-69
2022/11/26 13:35:43;;;;;;;20.63;18.53;;;;;;;5.11;82.37;93463.72;5090194;28;20228;-69
2022/11/26 13:38:16;;;;;;;20.40;18.30;;;;;;;5.06;82.38;93464.41;5085679;28;20193;-69
2022/11/26 13:40:50;;;;;;;23.00;19.70;;;;;;;4.97;83.19;93466.56;5090082;28;20216;-69
2022/11/26 13:43:36;;;;;;;31.70;23.67;;;;;;;4.83;84.13;93470.34;5090123;28;20224;-69
2022/11/26 13:46:24;;;;;;;24.10;20.13;;;;;;;4.78;83.78;93464.25;5088982;28;20229;-69
2022/11/26 13:48:58;;;;;;;21.30;19.10;;;;;;;4.70;84.90;93460.19;5081326;28;20177;-69
2022/11/26 13:51:29;;;;;;;19.87;18.10;;;;;;;4.72;84.32;93463.34;5089956;28;20250;-68
2022/11/26 13:54:07;;;;;;;20.37;18.37;;;;;;;4.75;83.79;93465.50;5097093;28;20192;-69
2022/11/26 13:56:35;;;;;;;20.20;18.13;;;;;;;4.65;84.02;93451.53;5082453;28;20231;-67
2022/11/26 13:59:04;;;;;;;19.00;17.40;;;;;;;4.51;84.90;93458.69;5095419;28;20187;-69
2022/11/26 14:01:39;;;;;;;18.23;16.63;;;;;;;4.59;85.13;93458.38;5078081;28;20251;-68
2022/11/26 14:04:29;;;;;;;17.30;15.80;;;;;;;4.51;85.16;93463.84;5089821;28;20279;-68
2022/11/26 14:07:03;;;;;;;16.13;14.63;;;;;;;4.40;85.33;93469.78;5077808;28;20207;-69
2022/11/26 14:09:41;;;;;;;17.23;15.73;;;;;;;4.38;85.03;93471.81;5089758;28;20196;-68
2022/11/26 14:12:06;;;;;;;17.50;15.90;;;;;;;4.30;85.42;93469.53;5089600;28;20180;-68
2022/11/26 14:14:33;;;;;;;16.87;15.53;;;;;;;4.37;85.81;93475.38;5093338;28;20204;-68
2022/11/26 14:16:59;;;;;;;17.43;15.93;;;;;;;4.36;85.50;93484.16;5089759;28;20184;-69
2022/11/26 14:19:47;;;;;;;18.13;16.50;;;;;;;4.20;85.96;93464.06;5089097;28;20193;-68
2022/11/26 14:22:18;;;;;;;17.43;15.73;;;;;;;4.17;86.10;93474.84;5089502;28;20192;-68
2022/11/26 14:24:46;;;;;;;17.03;15.53;;;;;;;4.14;86.57;93480.47;5104880;28;21023;-68
2022/11/26 14:27:12;;;;;;;19.70;17.73;;;;;;;4.13;86.09;93472.91;5089655;28;20181;-69
2022/11/26 14:29:37;;;;;;;19.40;17.43;;;;;;;4.10;86.12;93473.34;5088449;28;20254;-69
2022/11/26 14:32:10;;;;;;;18.43;16.93;;;;;;;4.05;86.16;93471.44;5089306;28;20184;-68
2022/11/26 14:34:56;;;;;;;17.47;15.87;;;;;;;3.83;87.43;93465.13;5089110;28;20298;-68
2022/11/26 14:37:25;;;;;;;15.90;14.60;;;;;;;3.61;87.00;93434.81;5089653;28;20246;-68
2022/11/26 14:40:19;;;;;;;15.13;13.80;;;;;;;3.97;87.58;93474.31;5088827;28;20228;-69
2022/11/26 14:42:44;;;;;;;15.50;14.00;;;;;;;3.77;87.55;93476.34;5089377;28;20180;-68
2022/11/26 14:45:21;;;;;;;15.40;13.83;;;;;;;3.79;87.88;93470.94;5089225;28;20307;-68
2022/11/26 14:47:51;;;;;;;14.90;13.70;;;;;;;3.66;87.67;93473.69;5089213;28;20184;-68
2022/11/26 14:50:22;;;;;;;13.73;12.57;;;;;;;3.71;87.88;93469.44;5088776;28;20255;-68
2022/11/26 14:52:58;;;;;;;14.37;13.07;;;;;;;3.61;88.00;93482.06;5088121;28;20193;-68
2022/11/26 14:55:29;;;;;;;13.60;12.57;;;;;;;3.62;87.13;93485.44;5089119;28;20235;-68
2022/11/26 14:58:08;;;;;;;13.20;12.17;;;;;;;3.60;87.49;93493.41;5089631;28;20194;-68
2022/11/26 15:00:34;;;;;;;14.17;12.80;;;;;;;3.45;87.69;93487.00;5088641;28;20224;-68
2022/11/26 15:03:02;;;;;;;15.53;13.73;;;;;;;3.41;88.40;93488.44;5089205;28;20188;-68
2022/11/26 15:05:32;;;;;;;17.90;16.20;;;;;;;3.53;91.79;93484.94;5089450;28;20261;-64
2022/11/26 15:08:04;;;;;;;16.27;14.63;;;;;;;3.26;89.34;93475.88;5092336;28;20168;-64
2022/11/26 15:10:34;;;;;;;15.57;14.47;;;;;;;3.29;88.86;93485.78;5092563;28;20220;-65
2022/11/26 15:13:08;;;;;;;13.00;11.83;;;;;;;3.33;87.60;93493.88;5085169;28;20204;-64
2022/11/26 15:15:34;;;;;;;14.37;13.47;;;;;;;3.13;87.80;93487.09;5089825;28;20244;-65
2022/11/26 15:18:04;;;;;;;14.17;13.07;;;;;;;3.12;87.56;93489.91;5092859;28;20200;-66
2022/11/26 15:20:31;;;;;;;16.20;14.80;;;;;;;3.17;87.72;93501.19;5091039;28;20771;-66
2022/11/26 15:22:59;;;;;;;19.60;17.73;;;;;;;3.05;88.23;93507.22;5091362;28;20185;-68
2022/11/26 15:25:28;;;;;;;21.40;18.93;;;;;;;3.13;88.58;93512.09;5087192;28;20228;-66
2022/11/26 15:28:17;;;;;;;17.53;16.03;;;;;;;3.12;87.23;93501.00;5091887;28;20721;-67
2022/11/26 15:31:02;;;;;;;15.63;14.53;;;;;;;3.06;86.06;93507.03;5086250;28;20224;-66
2022/11/26 15:33:30;;;;;;;15.10;13.83;;;;;;;3.10;84.91;93512.53;5090997;28;20199;-67
2022/11/26 15:35:56;;;;;;;15.43;14.03;;;;;;;3.16;84.66;93496.19;5091369;28;20231;-68
2022/11/26 15:38:24;;;;;;;15.80;14.33;;;;;;;2.93;85.13;93501.16;5091358;28;20169;-68
2022/11/26 15:40:52;;;;;;;16.83;15.20;;;;;;;2.98;84.03;93503.91;5088691;28;20231;-67
2022/11/26 15:43:20;;;;;;;18.27;16.70;;;;;;;2.99;84.16;93511.41;5089099;28;21079;-68
2022/11/26 15:45:47;;;;;;;19.33;17.43;;;;;;;2.91;83.73;93513.50;5087804;28;20269;-67
2022/11/26 15:48:24;;;;;;;19.30;17.50;;;;;;;2.94;83.54;93513.06;5085416;28;20189;-67
2022/11/26 15:50:51;;;;;;;17.77;15.93;;;;;;;2.99;83.04;93513.19;5091202;28;20222;-69
2022/11/26 15:53:23;;;;;;;14.97;13.53;;;;;;;2.92;82.79;93517.63;5088075;28;21113;-67
2022/11/26 15:55:49;;;;;;;15.20;13.90;;;;;;;2.88;82.61;93514.69;5091096;28;20220;-67
2022/11/26 15:58:30;;;;;;;12.47;11.33;;;;;;;2.92;81.51;93502.97;5089865;28;20227;-67
2022/11/26 16:00:58;;;;;;;12.90;12.00;;;;;;;2.87;81.46;93517.47;5092875;28;20253;-67
2022/11/26 16:03:44;;;;;;;12.50;11.70;;;;;;;2.87;81.15;93520.03;5087938;28;20207;-67
2022/11/26 16:06:32;;;;;;;11.40;10.60;;;;;;;2.77;81.50;93506.84;5088735;28;20224;-68
2022/11/26 16:08:58;;;;;;;12.10;11.40;;;;;;;2.81;81.62;93513.16;5087786;28;20192;-68
2022/11/26 16:11:24;;;;;;;13.77;12.67;;;;;;;2.76;81.26;93502.66;5087901;28;20250;-68
2022/11/26 16:13:50;;;;;;;14.00;13.07;;;;;;;2.64;81.35;93502.56;5090858;28;20215;-67
2022/11/26 16:16:22;;;;;;;16.53;15.03;;;;;;;2.71;81.63;93528.28;5089473;28;20275;-68
2022/11/26 16:18:58;;;;;;;20.80;17.03;;;;;;;2.79;81.54;93520.28;5086434;28;20177;-67
2022/11/26 16:21:31;;;;;;;21.43;19.13;;;;;;;2.80;81.06;93524.47;5089957;28;20216;-69
2022/11/26 16:24:07;;;;;;;37.80;21.87;;;;;;;2.76;80.77;93520.72;5086545;28;20238;-69
2022/11/26 16:26:53;;;;;;;26.93;19.63;;;;;;;2.69;80.87;93514.81;5089291;28;20243;-67
2022/11/26 16:29:18;;;;;;;26.93;19.37;;;;;;;2.71;81.04;93528.28;5087654;28;20173;-68
2022/11/26 16:31:44;;;;;;;30.53;21.03;;;;;;;2.69;80.55;93525.91;5090886;28;20184;-68
2022/11/26 16:34:09;;;;;;;46.33;28.23;;;;;;;2.76;79.29;93525.88;5091035;28;20223;-68
2022/11/26 16:36:39;;;;;;;39.40;24.60;;;;;;;2.76;78.39;93523.28;5088834;28;20224;-70
2022/11/26 16:39:04;;;;;;;22.83;17.57;;;;;;;2.67;79.45;93542.59;5087776;28;21009;-69
2022/11/26 16:41:30;;;;;;;19.50;16.63;;;;;;;2.66;78.91;93535.88;5090034;28;20229;-69
2022/11/26 16:43:55;;;;;;;15.57;14.07;;;;;;;2.74;77.66;93543.34;5090155;28;20244;-69
2022/11/26 16:46:22;;;;;;;13.37;12.27;;;;;;;2.71;77.75;93541.16;5089469;28;21062;-68
2022/11/26 16:48:49;;;;;;;12.43;11.67;;;;;;;2.48;77.44;93526.25;5086952;28;20181;-68
2022/11/26 16:51:15;;;;;;;14.60;12.03;;;;;;;2.58;78.02;93543.84;5089322;28;20254;-68
2022/11/26 16:53:41;;;;;;;17.73;12.57;;;;;;;2.51;78.25;93533.56;5087094;28;20177;-68
2022/11/26 16:56:16;;;;;;;15.03;13.47;;;;;;;2.53;78.91;93556.56;5089679;28;20363;-68
2022/11/26 16:58:42;;;;;;;14.60;13.50;;;;;;;2.37;78.46;93547.50;5087436;28;20180;-69
2022/11/26 17:01:07;;;;;;;13.23;12.30;;;;;;;2.61;80.26;93546.00;5089026;28;20235;-68
2022/11/26 17:03:32;;;;;;;15.43;13.67;;;;;;;2.73;79.35;93562.38;5089533;28;20219;-68
2022/11/26 17:06:02;;;;;;;14.67;13.43;;;;;;;2.65;79.89;93560.03;5086783;28;20231;-68
2022/11/26 17:08:28;;;;;;;13.07;12.20;;;;;;;2.53;79.47;93566.84;5087426;28;20223;-67
2022/11/26 17:10:54;;;;;;;12.70;11.60;;;;;;;2.45;80.10;93567.09;5089290;28;20259;-67
2022/11/26 17:13:19;;;;;;;13.97;12.33;;;;;;;2.32;80.81;93567.94;5088405;28;20168;-67
2022/11/26 17:15:46;;;;;;;12.80;12.00;;;;;;;2.34;80.77;93560.00;5089457;28;20217;-67
2022/11/26 17:18:17;;;;;;;13.37;12.27;;;;;;;2.24;82.25;93551.94;5089295;28;20188;-68
2022/11/26 17:20:43;;;;;;;12.33;11.60;;;;;;;2.16;83.04;93552.19;5085656;28;20239;-68
2022/11/26 17:23:09;;;;;;;13.63;12.70;;;;;;;2.30;83.53;93571.72;5087887;28;20188;-69
2022/11/26 17:25:34;;;;;;;14.40;12.43;;;;;;;2.29;83.15;93570.16;5086519;28;20232;-68
2022/11/26 17:27:59;;;;;;;13.60;12.60;;;;;;;2.17;84.62;93570.00;5085478;28;20189;-71
2022/11/26 17:30:25;;;;;;;13.50;12.50;;;;;;;2.12;85.48;93574.19;5086341;28;20235;-68
2022/11/26 17:32:50;;;;;;;14.93;13.77;;;;;;;2.13;85.15;93583.50;5088407;28;20189;-68
2022/11/26 17:35:16;;;;;;;13.33;12.43;;;;;;;2.07;85.38;93587.66;5088834;28;20228;-71
2022/11/26 17:37:42;;;;;;;13.87;12.87;;;;;;;2.13;84.74;93581.72;5088636;28;20211;-69
2022/11/26 17:40:19;;;;;;;14.83;13.57;;;;;;;2.12;85.65;93580.13;5086155;28;20229;-69
2022/11/26 17:42:45;;;;;;;17.00;14.57;;;;;;;2.11;86.10;93578.53;5075733;28;20193;-70
2022/11/26 17:45:10;;;;;;;14.13;12.87;;;;;;;1.88;86.43;93582.56;5088431;28;20252;-69
2022/11/26 17:47:36;;;;;;;14.17;12.97;;;;;;;2.15;85.10;93594.38;5083570;28;20192;-69
2022/11/26 17:50:04;;;;;;;14.37;13.13;;;;;;;2.13;85.55;93597.16;5088083;28;20247;-70
2022/11/26 17:52:29;;;;;;;15.67;14.37;;;;;;;2.15;85.91;93592.59;5089688;28;20196;-69
2022/11/26 17:54:55;;;;;;;15.87;14.40;;;;;;;2.17;86.78;93592.38;5085520;28;20229;-69
2022/11/26 17:57:21;;;;;;;19.90;15.37;;;;;;;2.18;86.89;93594.75;5089692;28;20223;-70
2022/11/26 17:59:47;;;;;;;26.40;18.83;;;;;;;2.28;86.42;93602.06;5087112;28;20228;-70
2022/11/26 18:02:12;;;;;;;26.90;16.97;;;;;;;2.42;86.11;93608.72;5092506;28;20212;-70
2022/11/26 18:04:38;;;;;;;18.87;16.37;;;;;;;2.34;86.91;93608.97;5086562;28;20250;-70
2022/11/26 18:07:10;;;;;;;19.90;16.97;;;;;;;2.39;86.96;93611.72;5083415;28;20225;-69
2022/11/26 18:09:36;;;;;;;16.73;15.03;;;;;;;2.32;87.18;93618.69;5081216;28;20233;-69
2022/11/26 18:12:03;;;;;;;17.83;15.97;;;;;;;2.38;87.12;93617.88;5088432;28;20223;-69
2022/11/26 18:14:29;;;;;;;16.63;14.87;;;;;;;2.42;87.58;93611.31;5088558;28;20203;-69
2022/11/26 18:16:54;;;;;;;18.10;16.37;;;;;;;2.39;87.24;93609.94;5087926;28;20710;-69
2022/11/26 18:19:21;;;;;;;17.27;15.27;;;;;;;2.44;88.13;93623.00;5088725;28;20189;-70
2022/11/26 18:21:48;;;;;;;20.43;17.53;;;;;;;2.41;87.67;93625.19;5086842;28;20192;-68
2022/11/26 18:24:14;;;;;;;18.03;15.80;;;;;;;2.36;88.25;93622.44;5075475;28;20217;-71
2022/11/26 18:26:40;;;;;;;19.77;16.13;;;;;;;2.32;87.70;93608.41;5093173;28;20292;-70
2022/11/26 18:29:06;;;;;;;15.97;14.27;;;;;;;2.45;88.44;93626.34;5089184;28;20189;-70
2022/11/26 18:31:33;;;;;;;17.63;15.90;;;;;;;2.42;88.34;93632.72;5094300;28;20237;-69